sensor_id;sensor_type;location;lat;lon;timestamp;pressure;altitude;pressure_sealevel;temperature;humidity
47742;BME280;33504;52.066;6.096;2022-08-25T00:01:51;101651.38;;;26.33;40.46
47742;BME280;33504;52.066;6.096;2022-08-25T00:04:19;101656.70;;;26.25;40.53
47742;BME280;33504;52.066;6.096;2022-08-25T00:06:47;101658.37;;;26.19;40.57
47742;BME280;33504;52.066;6.096;2022-08-25T00:09:18;101658.62;;;26.13;40.61
47742;BME280;33504;52.066;6.096;2022-08-25T00:11:47;101656.71;;;26.03;40.71
47742;BME280;33504;52.066;6.096;2022-08-25T00:14:17;101657.36;;;25.97;40.85
47742;BME280;33504;52.066;6.096;2022-08-25T00:16:45;101655.52;;;25.90;40.90
47742;BME280;33504;52.066;6.096;2022-08-25T00:19:15;101656.37;;;25.82;40.95
47742;BME280;33504;52.066;6.096;2022-08-25T00:21:43;101654.10;;;25.76;41.04
47742;BME280;33504;52.066;6.096;2022-08-25T00:24:13;101654.83;;;25.69;41.03
47742;BME280;33504;52.066;6.096;2022-08-25T00:26:43;101657.00;;;25.60;41.20
47742;BME280;33504;52.066;6.096;2022-08-25T00:29:10;101656.70;;;25.54;41.25
47742;BME280;33504;52.066;6.096;2022-08-25T00:31:39;101658.52;;;25.48;41.30
47742;BME280;33504;52.066;6.096;2022-08-25T00:34:08;101658.95;;;25.67;41.36
47742;BME280;33504;52.066;6.096;2022-08-25T00:36:37;101655.03;;;25.30;41.44
47742;BME280;33504;52.066;6.096;2022-08-25T00:39:06;101659.21;;;25.25;41.50
47742;BME280;33504;52.066;6.096;2022-08-25T00:41:34;101662.41;;;25.44;41.55
47742;BME280;33504;52.066;6.096;2022-08-25T00:44:04;101664.90;;;25.39;41.67
47742;BME280;33504;52.066;6.096;2022-08-25T00:46:33;101665.74;;;25.36;41.52
47742;BME280;33504;52.066;6.096;2022-08-25T00:49:04;101667.08;;;25.04;41.63
47742;BME280;33504;52.066;6.096;2022-08-25T00:51:36;101662.26;;;25.29;41.50
47742;BME280;33504;52.066;6.096;2022-08-25T00:54:06;101664.74;;;24.97;41.56
47742;BME280;33504;52.066;6.096;2022-08-25T00:56:33;101667.55;;;25.17;41.57
47742;BME280;33504;52.066;6.096;2022-08-25T00:59:02;101670.60;;;25.10;41.62
47742;BME280;33504;52.066;6.096;2022-08-25T01:01:31;101668.52;;;25.04;41.66
47742;BME280;33504;52.066;6.096;2022-08-25T01:03:58;101670.20;;;24.99;41.68
47742;BME280;33504;52.066;6.096;2022-08-25T01:06:27;101669.65;;;24.92;41.73
47742;BME280;33504;52.066;6.096;2022-08-25T01:08:57;101668.25;;;25.08;41.80
47742;BME280;33504;52.066;6.096;2022-08-25T01:11:24;101664.16;;;25.02;41.84
47742;BME280;33504;52.066;6.096;2022-08-25T01:13:54;101663.87;;;24.74;41.92
47742;BME280;33504;52.066;6.096;2022-08-25T01:16:22;101663.53;;;24.91;41.99
47742;BME280;33504;52.066;6.096;2022-08-25T01:18:52;101662.55;;;24.87;41.96
47742;BME280;33504;52.066;6.096;2022-08-25T01:21:21;101663.25;;;24.86;41.99
47742;BME280;33504;52.066;6.096;2022-08-25T01:23:50;101659.29;;;24.82;42.01
47742;BME280;33504;52.066;6.096;2022-08-25T01:26:20;101657.44;;;24.82;41.95
47742;BME280;33504;52.066;6.096;2022-08-25T01:28:49;101659.85;;;24.81;41.92
47742;BME280;33504;52.066;6.096;2022-08-25T01:31:17;101656.88;;;24.81;41.90
47742;BME280;33504;52.066;6.096;2022-08-25T01:33:44;101659.92;;;24.81;41.82
47742;BME280;33504;52.066;6.096;2022-08-25T01:36:12;101658.52;;;25.02;41.78
47742;BME280;33504;52.066;6.096;2022-08-25T01:38:42;101658.78;;;24.84;41.47
47742;BME280;33504;52.066;6.096;2022-08-25T01:41:10;101658.63;;;24.86;41.42
47742;BME280;33504;52.066;6.096;2022-08-25T01:43:38;101657.51;;;24.88;41.34
47742;BME280;33504;52.066;6.096;2022-08-25T01:46:04;101654.63;;;24.83;41.22
47742;BME280;33504;52.066;6.096;2022-08-25T01:48:32;101652.64;;;24.61;41.26
47742;BME280;33504;52.066;6.096;2022-08-25T01:50:59;101652.73;;;24.58;41.25
47742;BME280;33504;52.066;6.096;2022-08-25T01:53:28;101653.81;;;24.80;41.27
47742;BME280;33504;52.066;6.096;2022-08-25T01:55:56;101653.69;;;24.75;41.28
47742;BME280;33504;52.066;6.096;2022-08-25T01:58:25;101654.38;;;24.71;41.33
47742;BME280;33504;52.066;6.096;2022-08-25T02:00:55;101654.87;;;24.44;41.38
47742;BME280;33504;52.066;6.096;2022-08-25T02:03:24;101653.11;;;24.82;41.44
47742;BME280;33504;52.066;6.096;2022-08-25T02:05:52;101655.62;;;24.77;41.47
47742;BME280;33504;52.066;6.096;2022-08-25T02:08:20;101653.97;;;24.49;41.45
47742;BME280;33504;52.066;6.096;2022-08-25T02:10:47;101657.20;;;24.44;41.51
47742;BME280;33504;52.066;6.096;2022-08-25T02:13:15;101658.14;;;24.37;41.61
47742;BME280;33504;52.066;6.096;2022-08-25T02:15:43;101658.85;;;24.36;41.61
47742;BME280;33504;52.066;6.096;2022-08-25T02:18:12;101657.12;;;24.31;41.67
47742;BME280;33504;52.066;6.096;2022-08-25T02:20:39;101657.09;;;24.50;41.67
47742;BME280;33504;52.066;6.096;2022-08-25T02:23:07;101656.59;;;24.46;41.63
47742;BME280;33504;52.066;6.096;2022-08-25T02:25:34;101661.27;;;24.42;41.54
47742;BME280;33504;52.066;6.096;2022-08-25T02:28:03;101663.19;;;24.18;41.53
47742;BME280;33504;52.066;6.096;2022-08-25T02:30:31;101665.27;;;24.35;41.54
47742;BME280;33504;52.066;6.096;2022-08-25T02:32:58;101662.44;;;24.08;41.59
47742;BME280;33504;52.066;6.096;2022-08-25T02:35:25;101666.01;;;24.05;41.59
47742;BME280;33504;52.066;6.096;2022-08-25T02:37:53;101664.34;;;24.24;41.63
47742;BME280;33504;52.066;6.096;2022-08-25T02:40:20;101664.77;;;24.22;41.58
47742;BME280;33504;52.066;6.096;2022-08-25T02:42:48;101661.64;;;24.22;41.47
47742;BME280;33504;52.066;6.096;2022-08-25T02:45:16;101660.46;;;24.50;41.32
47742;BME280;33504;52.066;6.096;2022-08-25T02:47:44;101660.96;;;23.99;41.29
47742;BME280;33504;52.066;6.096;2022-08-25T02:50:12;101660.35;;;24.21;41.32
47742;BME280;33504;52.066;6.096;2022-08-25T02:52:39;101654.88;;;23.95;41.31
47742;BME280;33504;52.066;6.096;2022-08-25T02:55:09;101653.21;;;24.16;41.31
47742;BME280;33504;52.066;6.096;2022-08-25T02:57:36;101650.65;;;24.42;41.29
47742;BME280;33504;52.066;6.096;2022-08-25T03:00:05;101645.58;;;24.13;41.30
47742;BME280;33504;52.066;6.096;2022-08-25T03:02:33;101641.55;;;24.11;41.27
47742;BME280;33504;52.066;6.096;2022-08-25T03:05:00;101642.19;;;24.08;41.22
47742;BME280;33504;52.066;6.096;2022-08-25T03:07:28;101638.32;;;24.31;41.10
47742;BME280;33504;52.066;6.096;2022-08-25T03:09:55;101636.71;;;23.99;41.07
47742;BME280;33504;52.066;6.096;2022-08-25T03:12:21;101635.40;;;24.20;40.96
47742;BME280;33504;52.066;6.096;2022-08-25T03:14:48;101632.66;;;23.89;40.90
47742;BME280;33504;52.066;6.096;2022-08-25T03:17:16;101630.01;;;24.09;40.84
47742;BME280;33504;52.066;6.096;2022-08-25T03:19:43;101632.41;;;24.05;40.79
47742;BME280;33504;52.066;6.096;2022-08-25T03:22:10;101629.09;;;23.72;40.92
47742;BME280;33504;52.066;6.096;2022-08-25T03:24:37;101625.84;;;23.92;40.95
47742;BME280;33504;52.066;6.096;2022-08-25T03:27:05;101623.55;;;23.87;40.97
47742;BME280;33504;52.066;6.096;2022-08-25T03:29:33;101619.18;;;23.84;40.98
47742;BME280;33504;52.066;6.096;2022-08-25T03:32:01;101616.33;;;23.79;40.93
47742;BME280;33504;52.066;6.096;2022-08-25T03:34:29;101615.03;;;23.74;41.02
47742;BME280;33504;52.066;6.096;2022-08-25T03:36:57;101616.29;;;23.68;41.04
47742;BME280;33504;52.066;6.096;2022-08-25T03:39:25;101618.04;;;23.63;41.05
47742;BME280;33504;52.066;6.096;2022-08-25T03:41:53;101621.07;;;23.57;40.72
47742;BME280;33504;52.066;6.096;2022-08-25T03:44:21;101620.87;;;23.51;40.65
47742;BME280;33504;52.066;6.096;2022-08-25T03:46:50;101618.21;;;23.44;40.53
47742;BME280;33504;52.066;6.096;2022-08-25T03:49:20;101613.12;;;23.38;40.53
47742;BME280;33504;52.066;6.096;2022-08-25T03:51:50;101610.99;;;23.32;40.67
47742;BME280;33504;52.066;6.096;2022-08-25T03:54:19;101607.84;;;23.28;40.73
47742;BME280;33504;52.066;6.096;2022-08-25T03:56:47;101606.39;;;23.23;40.84
47742;BME280;33504;52.066;6.096;2022-08-25T03:59:14;101604.02;;;23.19;40.85
47742;BME280;33504;52.066;6.096;2022-08-25T04:01:43;101599.06;;;23.36;40.94
47742;BME280;33504;52.066;6.096;2022-08-25T04:04:11;101600.92;;;23.07;41.00
47742;BME280;33504;52.066;6.096;2022-08-25T04:06:39;101600.38;;;23.03;41.16
47742;BME280;33504;52.066;6.096;2022-08-25T04:09:07;101597.12;;;22.99;41.19
47742;BME280;33504;52.066;6.096;2022-08-25T04:11:34;101593.95;;;22.67;41.26
47742;BME280;33504;52.066;6.096;2022-08-25T04:14:02;101592.47;;;23.17;41.25
47742;BME280;33504;52.066;6.096;2022-08-25T04:16:31;101588.75;;;23.11;41.27
47742;BME280;33504;52.066;6.096;2022-08-25T04:19:00;101589.99;;;22.84;41.31
47742;BME280;33504;52.066;6.096;2022-08-25T04:21:28;101592.81;;;23.00;41.30
47742;BME280;33504;52.066;6.096;2022-08-25T04:23:56;101592.27;;;22.95;41.33
47742;BME280;33504;52.066;6.096;2022-08-25T04:26:26;101594.48;;;22.91;41.33
47742;BME280;33504;52.066;6.096;2022-08-25T04:28:55;101593.52;;;23.08;41.27
47742;BME280;33504;52.066;6.096;2022-08-25T04:31:23;101591.72;;;22.58;41.28
47742;BME280;33504;52.066;6.096;2022-08-25T04:33:50;101586.58;;;22.96;41.30
47742;BME280;33504;52.066;6.096;2022-08-25T04:36:18;101584.39;;;22.69;41.19
47742;BME280;33504;52.066;6.096;2022-08-25T04:38:47;101581.51;;;22.65;41.12
47742;BME280;33504;52.066;6.096;2022-08-25T04:41:17;101581.09;;;22.82;41.14
47742;BME280;33504;52.066;6.096;2022-08-25T04:43:45;101584.40;;;22.77;41.02
47742;BME280;33504;52.066;6.096;2022-08-25T04:46:14;101585.68;;;22.71;40.98
47742;BME280;33504;52.066;6.096;2022-08-25T04:48:43;101586.32;;;22.68;40.96
47742;BME280;33504;52.066;6.096;2022-08-25T04:51:13;101586.16;;;22.65;41.01
47742;BME280;33504;52.066;6.096;2022-08-25T04:53:41;101588.80;;;22.18;41.00
47742;BME280;33504;52.066;6.096;2022-08-25T04:56:10;101585.39;;;22.61;40.98
47742;BME280;33504;52.066;6.096;2022-08-25T04:58:39;101586.45;;;22.59;41.00
47742;BME280;33504;52.066;6.096;2022-08-25T05:01:09;101585.88;;;22.57;40.95
47742;BME280;33504;52.066;6.096;2022-08-25T05:03:36;101587.54;;;22.55;40.94
47742;BME280;33504;52.066;6.096;2022-08-25T05:06:04;101588.41;;;22.52;40.92
47742;BME280;33504;52.066;6.096;2022-08-25T05:08:32;101587.55;;;22.49;40.98
47742;BME280;33504;52.066;6.096;2022-08-25T05:11:04;101584.31;;;22.47;40.97
47742;BME280;33504;52.066;6.096;2022-08-25T05:13:31;101585.88;;;22.46;41.03
47742;BME280;33504;52.066;6.096;2022-08-25T05:16:00;101588.97;;;22.45;40.97
47742;BME280;33504;52.066;6.096;2022-08-25T05:18:30;101592.65;;;22.47;40.97
47742;BME280;33504;52.066;6.096;2022-08-25T05:21:01;101593.49;;;22.48;40.95
47742;BME280;33504;52.066;6.096;2022-08-25T05:23:28;101597.87;;;22.47;41.00
47742;BME280;33504;52.066;6.096;2022-08-25T05:26:01;101596.38;;;22.46;40.97
47742;BME280;33504;52.066;6.096;2022-08-25T05:28:29;101593.76;;;22.48;41.02
47742;BME280;33504;52.066;6.096;2022-08-25T05:30:58;101591.47;;;22.49;41.07
47742;BME280;33504;52.066;6.096;2022-08-25T05:33:26;101592.29;;;22.52;41.09
47742;BME280;33504;52.066;6.096;2022-08-25T05:35:54;101595.26;;;22.54;41.00
47742;BME280;33504;52.066;6.096;2022-08-25T05:38:20;101594.99;;;22.83;41.01
47742;BME280;33504;52.066;6.096;2022-08-25T05:40:51;101596.67;;;22.59;41.07
47742;BME280;33504;52.066;6.096;2022-08-25T05:43:18;101589.89;;;22.42;41.12
47742;BME280;33504;52.066;6.096;2022-08-25T05:45:45;101586.93;;;22.48;41.21
47742;BME280;33504;52.066;6.096;2022-08-25T05:48:12;101590.06;;;22.75;41.22
47742;BME280;33504;52.066;6.096;2022-08-25T05:50:40;101593.01;;;22.82;41.30
47742;BME280;33504;52.066;6.096;2022-08-25T05:53:07;101597.42;;;22.88;41.13
47742;BME280;33504;52.066;6.096;2022-08-25T05:55:34;101599.52;;;22.95;41.02
47742;BME280;33504;52.066;6.096;2022-08-25T05:58:01;101602.41;;;22.60;40.91
47742;BME280;33504;52.066;6.096;2022-08-25T06:00:27;101603.18;;;22.95;40.67
47742;BME280;33504;52.066;6.096;2022-08-25T06:02:54;101605.70;;;23.30;40.42
47742;BME280;33504;52.066;6.096;2022-08-25T06:05:22;101605.31;;;23.17;40.14
47742;BME280;33504;52.066;6.096;2022-08-25T06:07:50;101603.63;;;23.07;39.61
47742;BME280;33504;52.066;6.096;2022-08-25T06:10:18;101604.32;;;23.14;39.36
47742;BME280;33504;52.066;6.096;2022-08-25T06:12:45;101604.80;;;23.27;39.01
47742;BME280;33504;52.066;6.096;2022-08-25T06:15:15;101609.90;;;23.44;39.06
47742;BME280;33504;52.066;6.096;2022-08-25T06:17:42;101609.93;;;23.24;37.00
47742;BME280;33504;52.066;6.096;2022-08-25T06:20:11;101609.06;;;23.41;36.97
47742;BME280;33504;52.066;6.096;2022-08-25T06:22:39;101608.23;;;23.39;37.73
47742;BME280;33504;52.066;6.096;2022-08-25T06:25:09;101609.05;;;23.73;37.60
47742;BME280;33504;52.066;6.096;2022-08-25T06:27:37;101609.58;;;23.63;36.62
47742;BME280;33504;52.066;6.096;2022-08-25T06:30:06;101614.56;;;24.11;36.25
47742;BME280;33504;52.066;6.096;2022-08-25T06:32:35;101614.20;;;23.90;36.07
47742;BME280;33504;52.066;6.096;2022-08-25T06:35:03;101613.25;;;23.97;36.01
47742;BME280;33504;52.066;6.096;2022-08-25T06:37:30;101612.64;;;24.45;36.13
47742;BME280;33504;52.066;6.096;2022-08-25T06:39:57;101612.26;;;24.25;36.16
47742;BME280;33504;52.066;6.096;2022-08-25T06:42:24;101606.91;;;24.16;35.69
47742;BME280;33504;52.066;6.096;2022-08-25T06:44:51;101603.60;;;24.40;35.49
47742;BME280;33504;52.066;6.096;2022-08-25T06:47:19;101601.79;;;24.72;35.07
47742;BME280;33504;52.066;6.096;2022-08-25T06:49:46;101605.67;;;24.94;35.00
47742;BME280;33504;52.066;6.096;2022-08-25T06:52:14;101605.09;;;24.82;35.06
47742;BME280;33504;52.066;6.096;2022-08-25T06:54:41;101602.08;;;25.00;34.66
47742;BME280;33504;52.066;6.096;2022-08-25T06:57:08;101604.23;;;25.46;35.03
47742;BME280;33504;52.066;6.096;2022-08-25T06:59:35;101606.44;;;24.88;34.29
47742;BME280;33504;52.066;6.096;2022-08-25T07:02:05;101607.97;;;25.54;33.98
47742;BME280;33504;52.066;6.096;2022-08-25T07:04:34;101605.70;;;25.39;33.92
47742;BME280;33504;52.066;6.096;2022-08-25T07:07:02;101603.44;;;25.45;33.58
47742;BME280;33504;52.066;6.096;2022-08-25T07:09:30;101601.00;;;25.75;33.83
47742;BME280;33504;52.066;6.096;2022-08-25T07:11:57;101602.29;;;26.02;33.90
47742;BME280;33504;52.066;6.096;2022-08-25T07:14:23;101603.03;;;25.79;33.29
47742;BME280;33504;52.066;6.096;2022-08-25T07:16:51;101598.93;;;26.28;33.03
47742;BME280;33504;52.066;6.096;2022-08-25T07:19:18;101597.17;;;26.34;32.85
47742;BME280;33504;52.066;6.096;2022-08-25T07:21:47;101594.63;;;26.76;32.09
47742;BME280;33504;52.066;6.096;2022-08-25T07:24:15;101596.51;;;27.04;31.95
47742;BME280;33504;52.066;6.096;2022-08-25T07:26:43;101595.15;;;27.24;32.06
47742;BME280;33504;52.066;6.096;2022-08-25T07:29:12;101593.43;;;26.98;31.69
47742;BME280;33504;52.066;6.096;2022-08-25T07:31:39;101594.89;;;27.27;31.39
47742;BME280;33504;52.066;6.096;2022-08-25T07:34:08;101593.99;;;26.99;30.72
47742;BME280;33504;52.066;6.096;2022-08-25T07:36:35;101592.84;;;27.52;30.70
47742;BME280;33504;52.066;6.096;2022-08-25T07:39:03;101591.98;;;27.49;30.75
47742;BME280;33504;52.066;6.096;2022-08-25T07:41:31;101591.46;;;27.86;30.44
47742;BME280;33504;52.066;6.096;2022-08-25T07:44:01;101593.83;;;28.01;30.66
47742;BME280;33504;52.066;6.096;2022-08-25T07:46:28;101600.32;;;28.33;29.78
47742;BME280;33504;52.066;6.096;2022-08-25T07:48:55;101597.54;;;28.64;29.46
47742;BME280;33504;52.066;6.096;2022-08-25T07:51:23;101599.28;;;28.63;29.16
47742;BME280;33504;52.066;6.096;2022-08-25T07:53:50;101599.74;;;28.85;29.17
47742;BME280;33504;52.066;6.096;2022-08-25T07:56:17;101602.56;;;29.44;28.88
47742;BME280;33504;52.066;6.096;2022-08-25T07:58:45;101599.67;;;29.38;28.21
47742;BME280;33504;52.066;6.096;2022-08-25T08:01:13;101598.48;;;29.41;27.75
47742;BME280;33504;52.066;6.096;2022-08-25T08:03:41;101601.86;;;29.33;27.58
47742;BME280;33504;52.066;6.096;2022-08-25T08:06:10;101607.67;;;29.53;27.90
47742;BME280;33504;52.066;6.096;2022-08-25T08:08:38;101605.44;;;30.00;27.53
47742;BME280;33504;52.066;6.096;2022-08-25T08:11:14;101598.64;;;29.85;27.12
47742;BME280;33504;52.066;6.096;2022-08-25T08:13:40;101592.65;;;30.21;27.07
47742;BME280;33504;52.066;6.096;2022-08-25T08:16:08;101591.01;;;30.24;27.17
47742;BME280;33504;52.066;6.096;2022-08-25T08:18:36;101584.51;;;30.42;26.91
47742;BME280;33504;52.066;6.096;2022-08-25T08:21:03;101584.15;;;30.47;27.00
47742;BME280;33504;52.066;6.096;2022-08-25T08:23:31;101580.67;;;31.15;26.45
47742;BME280;33504;52.066;6.096;2022-08-25T08:25:58;101578.55;;;30.96;25.84
47742;BME280;33504;52.066;6.096;2022-08-25T08:28:25;101576.36;;;31.07;25.86
47742;BME280;33504;52.066;6.096;2022-08-25T08:30:52;101577.16;;;31.24;25.57
47742;BME280;33504;52.066;6.096;2022-08-25T08:33:22;101572.45;;;31.76;25.64
47742;BME280;33504;52.066;6.096;2022-08-25T08:35:55;101571.39;;;31.41;25.44
47742;BME280;33504;52.066;6.096;2022-08-25T08:38:22;101571.04;;;31.62;25.21
47742;BME280;33504;52.066;6.096;2022-08-25T08:40:59;101566.67;;;31.75;24.83
47742;BME280;33504;52.066;6.096;2022-08-25T08:43:29;101563.65;;;32.23;24.81
47742;BME280;33504;52.066;6.096;2022-08-25T08:45:56;101562.28;;;32.24;24.60
47742;BME280;33504;52.066;6.096;2022-08-25T08:48:37;101555.78;;;32.39;24.25
47742;BME280;33504;52.066;6.096;2022-08-25T08:51:15;101552.82;;;32.16;23.96
47742;BME280;33504;52.066;6.096;2022-08-25T08:53:47;101551.41;;;32.96;23.94
47742;BME280;33504;52.066;6.096;2022-08-25T08:56:19;101547.77;;;32.97;24.02
47742;BME280;33504;52.066;6.096;2022-08-25T08:58:50;101549.52;;;32.87;23.60
47742;BME280;33504;52.066;6.096;2022-08-25T09:01:25;101546.71;;;32.48;23.60
47742;BME280;33504;52.066;6.096;2022-08-25T09:03:58;101539.79;;;32.49;23.75
47742;BME280;33504;52.066;6.096;2022-08-25T09:06:31;101537.94;;;32.86;23.78
47742;BME280;33504;52.066;6.096;2022-08-25T09:09:03;101537.03;;;33.22;23.64
47742;BME280;33504;52.066;6.096;2022-08-25T09:11:44;101531.69;;;33.24;22.75
47742;BME280;33504;52.066;6.096;2022-08-25T09:14:24;101534.19;;;33.21;22.91
47742;BME280;33504;52.066;6.096;2022-08-25T09:16:58;101536.13;;;33.12;23.13
47742;BME280;33504;52.066;6.096;2022-08-25T09:19:36;101531.38;;;32.96;23.49
47742;BME280;33504;52.066;6.096;2022-08-25T09:22:17;101534.76;;;33.72;23.51
47742;BME280;33504;52.066;6.096;2022-08-25T09:24:55;101537.69;;;33.52;23.05
47742;BME280;33504;52.066;6.096;2022-08-25T09:27:27;101537.33;;;34.03;22.32
47742;BME280;33504;52.066;6.096;2022-08-25T09:30:04;101531.60;;;34.30;22.29
47742;BME280;33504;52.066;6.096;2022-08-25T09:32:34;101524.01;;;34.77;22.07
47742;BME280;33504;52.066;6.096;2022-08-25T09:35:05;101517.32;;;35.02;21.42
47742;BME280;33504;52.066;6.096;2022-08-25T09:37:33;101518.41;;;34.93;21.25
47742;BME280;33504;52.066;6.096;2022-08-25T09:40:01;101515.11;;;34.84;21.26
47742;BME280;33504;52.066;6.096;2022-08-25T09:42:46;101512.78;;;35.23;21.16
47742;BME280;33504;52.066;6.096;2022-08-25T09:45:14;101507.56;;;34.84;21.65
47742;BME280;33504;52.066;6.096;2022-08-25T09:47:43;101509.88;;;35.36;21.11
47742;BME280;33504;52.066;6.096;2022-08-25T09:50:15;101508.50;;;35.47;20.77
47742;BME280;33504;52.066;6.096;2022-08-25T09:52:42;101506.36;;;35.63;20.65
47742;BME280;33504;52.066;6.096;2022-08-25T09:55:43;101495.44;;;36.27;20.58
47742;BME280;33504;52.066;6.096;2022-08-25T09:58:17;101494.06;;;35.96;20.36
47742;BME280;33504;52.066;6.096;2022-08-25T10:01:00;101491.42;;;35.76;20.21
47742;BME280;33504;52.066;6.096;2022-08-25T10:03:28;101486.88;;;36.55;19.61
47742;BME280;33504;52.066;6.096;2022-08-25T10:06:00;101485.04;;;36.21;19.71
47742;BME280;33504;52.066;6.096;2022-08-25T10:08:34;101480.17;;;36.43;18.74
47742;BME280;33504;52.066;6.096;2022-08-25T10:11:03;101486.45;;;36.78;17.87
47742;BME280;33504;52.066;6.096;2022-08-25T10:13:36;101485.20;;;36.88;17.99
47742;BME280;33504;52.066;6.096;2022-08-25T10:16:08;101483.15;;;37.48;18.83
47742;BME280;33504;52.066;6.096;2022-08-25T10:18:36;101484.53;;;37.49;18.17
47742;BME280;33504;52.066;6.096;2022-08-25T10:21:09;101479.44;;;37.20;17.02
47742;BME280;33504;52.066;6.096;2022-08-25T10:23:40;101479.91;;;37.65;17.56
47742;BME280;33504;52.066;6.096;2022-08-25T10:26:26;101475.10;;;37.37;16.81
47742;BME280;33504;52.066;6.096;2022-08-25T10:29:08;101469.54;;;37.27;16.91
47742;BME280;33504;52.066;6.096;2022-08-25T10:31:41;101466.13;;;37.10;17.23
47742;BME280;33504;52.066;6.096;2022-08-25T10:34:24;101457.33;;;37.87;17.06
47742;BME280;33504;52.066;6.096;2022-08-25T10:37:03;101456.86;;;37.75;16.58
47742;BME280;33504;52.066;6.096;2022-08-25T10:39:38;101454.87;;;37.42;16.50
47742;BME280;33504;52.066;6.096;2022-08-25T10:42:21;101455.27;;;37.85;16.19
47742;BME280;33504;52.066;6.096;2022-08-25T10:45:06;101444.73;;;38.30;15.97
47742;BME280;33504;52.066;6.096;2022-08-25T10:47:48;101440.40;;;38.42;15.72
47742;BME280;33504;52.066;6.096;2022-08-25T10:50:23;101436.34;;;38.42;15.48
47742;BME280;33504;52.066;6.096;2022-08-25T10:53:06;101432.21;;;38.44;15.21
47742;BME280;33504;52.066;6.096;2022-08-25T10:55:41;101432.03;;;38.43;14.94
47742;BME280;33504;52.066;6.096;2022-08-25T10:58:17;101427.39;;;38.47;14.80
47742;BME280;33504;52.066;6.096;2022-08-25T11:00:51;101428.60;;;37.71;14.53
47742;BME280;33504;52.066;6.096;2022-08-25T11:03:31;101427.90;;;38.31;14.03
47742;BME280;33504;52.066;6.096;2022-08-25T11:06:08;101415.01;;;38.29;13.89
47742;BME280;33504;52.066;6.096;2022-08-25T11:08:41;101412.94;;;38.74;14.23
47742;BME280;33504;52.066;6.096;2022-08-25T11:11:12;101413.06;;;39.04;14.76
47742;BME280;33504;52.066;6.096;2022-08-25T11:13:47;101404.45;;;39.01;14.36
47742;BME280;33504;52.066;6.096;2022-08-25T11:16:20;101406.45;;;39.68;14.49
47742;BME280;33504;52.066;6.096;2022-08-25T11:18:56;101404.67;;;39.19;14.37
47742;BME280;33504;52.066;6.096;2022-08-25T11:21:30;101404.77;;;39.45;13.94
47742;BME280;33504;52.066;6.096;2022-08-25T11:24:04;101399.39;;;39.76;14.14
47742;BME280;33504;52.066;6.096;2022-08-25T11:26:36;101388.62;;;39.51;14.16
47742;BME280;33504;52.066;6.096;2022-08-25T11:29:08;101397.51;;;39.74;13.99
47742;BME280;33504;52.066;6.096;2022-08-25T11:31:39;101395.98;;;39.80;13.66
47742;BME280;33504;52.066;6.096;2022-08-25T11:34:09;101397.49;;;39.97;13.40
47742;BME280;33504;52.066;6.096;2022-08-25T11:36:38;101392.03;;;39.66;13.64
47742;BME280;33504;52.066;6.096;2022-08-25T11:39:15;101389.38;;;40.48;13.43
47742;BME280;33504;52.066;6.096;2022-08-25T11:41:55;101385.51;;;39.66;13.37
47742;BME280;33504;52.066;6.096;2022-08-25T11:44:41;101383.04;;;39.41;12.68
47742;BME280;33504;52.066;6.096;2022-08-25T11:47:22;101382.94;;;39.55;13.21
47742;BME280;33504;52.066;6.096;2022-08-25T11:49:59;101374.37;;;39.79;13.38
47742;BME280;33504;52.066;6.096;2022-08-25T11:52:47;101373.97;;;39.88;13.32
47742;BME280;33504;52.066;6.096;2022-08-25T11:55:20;101371.51;;;39.85;13.33
47742;BME280;33504;52.066;6.096;2022-08-25T11:57:49;101368.76;;;39.83;13.22
47742;BME280;33504;52.066;6.096;2022-08-25T12:00:36;101370.38;;;39.90;13.12
47742;BME280;33504;52.066;6.096;2022-08-25T12:03:49;101366.56;;;40.24;13.87
47742;BME280;33504;52.066;6.096;2022-08-25T12:06:21;101364.29;;;39.33;13.55
47742;BME280;33504;52.066;6.096;2022-08-25T12:08:53;101359.59;;;39.20;13.77
47742;BME280;33504;52.066;6.096;2022-08-25T12:11:45;101361.22;;;38.83;13.83
47742;BME280;33504;52.066;6.096;2022-08-25T12:14:31;101363.26;;;38.94;13.68
47742;BME280;33504;52.066;6.096;2022-08-25T12:17:07;101353.11;;;38.81;13.61
47742;BME280;33504;52.066;6.096;2022-08-25T12:19:51;101353.83;;;38.50;13.47
47742;BME280;33504;52.066;6.096;2022-08-25T12:22:56;101350.19;;;39.75;13.65
47742;BME280;33504;52.066;6.096;2022-08-25T12:25:35;101353.76;;;38.67;12.91
47742;BME280;33504;52.066;6.096;2022-08-25T12:28:11;101351.73;;;39.02;12.51
47742;BME280;33504;52.066;6.096;2022-08-25T12:30:46;101354.12;;;39.23;13.01
47742;BME280;33504;52.066;6.096;2022-08-25T12:33:20;101351.40;;;39.06;13.10
47742;BME280;33504;52.066;6.096;2022-08-25T12:35:57;101351.78;;;39.23;13.14
47742;BME280;33504;52.066;6.096;2022-08-25T12:38:30;101348.88;;;39.07;12.90
47742;BME280;33504;52.066;6.096;2022-08-25T12:41:02;101351.99;;;38.65;13.13
47742;BME280;33504;52.066;6.096;2022-08-25T12:43:35;101350.77;;;38.77;13.55
47742;BME280;33504;52.066;6.096;2022-08-25T12:46:37;101343.98;;;38.63;14.03
47742;BME280;33504;52.066;6.096;2022-08-25T12:49:14;101342.94;;;37.99;14.35
47742;BME280;33504;52.066;6.096;2022-08-25T12:51:57;101337.89;;;38.10;14.25
47742;BME280;33504;52.066;6.096;2022-08-25T12:54:40;101339.50;;;38.61;13.98
47742;BME280;33504;52.066;6.096;2022-08-25T12:57:22;101335.66;;;38.57;13.68
47742;BME280;33504;52.066;6.096;2022-08-25T12:59:56;101339.57;;;38.56;13.28
47742;BME280;33504;52.066;6.096;2022-08-25T13:03:41;101330.28;;;39.04;12.73
47742;BME280;33504;52.066;6.096;2022-08-25T13:06:20;101330.20;;;39.74;12.84
47742;BME280;33504;52.066;6.096;2022-08-25T13:09:04;101325.92;;;40.05;12.75
47742;BME280;33504;52.066;6.096;2022-08-25T13:11:43;101327.08;;;40.73;12.90